sensor_id;sensor_type;location;lat;lon;timestamp;pressure;altitude;pressure_sealevel;temperature
64175;BMP280;50469;50.438;-119.202;2023-07-20T00:01:19;97402.00;;;32.07
64175;BMP280;50469;50.438;-119.202;2023-07-20T00:03:47;97394.78;;;32.12
64175;BMP280;50469;50.438;-119.202;2023-07-20T00:06:21;97401.81;;;32.05
64175;BMP280;50469;50.438;-119.202;2023-07-20T00:08:50;97392.94;;;32.14
64175;BMP280;50469;50.438;-119.202;2023-07-20T00:11:18;97388.16;;;32.15
64175;BMP280;50469;50.438;-119.202;2023-07-20T00:13:48;97386.91;;;32.39
64175;BMP280;50469;50.438;-119.202;2023-07-20T00:16:20;97379.31;;;32.24
64175;BMP280;50469;50.438;-119.202;2023-07-20T00:18:51;97387.06;;;32.25
64175;BMP280;50469;50.438;-119.202;2023-07-20T00:21:25;97382.44;;;32.13
64175;BMP280;50469;50.438;-119.202;2023-07-20T00:23:53;97380.75;;;32.10
64175;BMP280;50469;50.438;-119.202;2023-07-20T00:26:24;97372.09;;;32.21
64175;BMP280;50469;50.438;-119.202;2023-07-20T00:28:52;97373.72;;;31.93
64175;BMP280;50469;50.438;-119.202;2023-07-20T00:31:21;97371.03;;;32.70
64175;BMP280;50469;50.438;-119.202;2023-07-20T00:33:52;97369.34;;;32.21
64175;BMP280;50469;50.438;-119.202;2023-07-20T00:36:25;97368.22;;;32.09
64175;BMP280;50469;50.438;-119.202;2023-07-20T00:38:55;97365.81;;;32.13
64175;BMP280;50469;50.438;-119.202;2023-07-20T00:41:23;97363.00;;;31.97
64175;BMP280;50469;50.438;-119.202;2023-07-20T00:43:51;97360.44;;;31.99
64175;BMP280;50469;50.438;-119.202;2023-07-20T00:46:23;97347.16;;;32.13
64175;BMP280;50469;50.438;-119.202;2023-07-20T00:48:55;97351.22;;;32.27
64175;BMP280;50469;50.438;-119.202;2023-07-20T00:51:26;97360.44;;;32.07
64175;BMP280;50469;50.438;-119.202;2023-07-20T00:53:55;97362.31;;;32.35
64175;BMP280;50469;50.438;-119.202;2023-07-20T00:56:26;97353.06;;;32.25
64175;BMP280;50469;50.438;-119.202;2023-07-20T00:58:55;97350.63;;;32.06
64175;BMP280;50469;50.438;-119.202;2023-07-20T01:01:24;97353.78;;;32.10
64175;BMP280;50469;50.438;-119.202;2023-07-20T01:03:55;97351.56;;;31.93
64175;BMP280;50469;50.438;-119.202;2023-07-20T01:06:38;97348.97;;;31.95
64175;BMP280;50469;50.438;-119.202;2023-07-20T01:09:23;97345.09;;;32.06
64175;BMP280;50469;50.438;-119.202;2023-07-20T01:12:12;97347.84;;;31.91
64175;BMP280;50469;50.438;-119.202;2023-07-20T01:14:44;97345.88;;;32.07
64175;BMP280;50469;50.438;-119.202;2023-07-20T01:17:15;97340.84;;;31.97
64175;BMP280;50469;50.438;-119.202;2023-07-20T01:19:45;97344.53;;;32.00
64175;BMP280;50469;50.438;-119.202;2023-07-20T01:28:25;97337.09;;;31.72
64175;BMP280;50469;50.438;-119.202;2023-07-20T01:33:56;97336.94;;;31.78
64175;BMP280;50469;50.438;-119.202;2023-07-20T01:36:29;97334.94;;;32.01
64175;BMP280;50469;50.438;-119.202;2023-07-20T01:39:01;97333.25;;;31.83
64175;BMP280;50469;50.438;-119.202;2023-07-20T01:41:33;97331.22;;;31.83
64175;BMP280;50469;50.438;-119.202;2023-07-20T01:44:03;97328.59;;;31.70
64175;BMP280;50469;50.438;-119.202;2023-07-20T01:46:32;97329.38;;;31.86
64175;BMP280;50469;50.438;-119.202;2023-07-20T01:49:00;97331.31;;;31.55
64175;BMP280;50469;50.438;-119.202;2023-07-20T01:51:34;97328.91;;;31.59
64175;BMP280;50469;50.438;-119.202;2023-07-20T01:54:02;97333.47;;;31.41
64175;BMP280;50469;50.438;-119.202;2023-07-20T01:56:30;97326.41;;;31.32
64175;BMP280;50469;50.438;-119.202;2023-07-20T01:59:00;97330.28;;;31.29
64175;BMP280;50469;50.438;-119.202;2023-07-20T02:01:33;97326.28;;;31.45
64175;BMP280;50469;50.438;-119.202;2023-07-20T02:04:02;97333.16;;;31.52
64175;BMP280;50469;50.438;-119.202;2023-07-20T02:06:31;97333.63;;;30.71
64175;BMP280;50469;50.438;-119.202;2023-07-20T02:08:59;97329.19;;;30.96
64175;BMP280;50469;50.438;-119.202;2023-07-20T02:11:31;97328.16;;;30.78
64175;BMP280;50469;50.438;-119.202;2023-07-20T02:13:59;97330.44;;;30.67
64175;BMP280;50469;50.438;-119.202;2023-07-20T02:16:27;97331.31;;;30.82
64175;BMP280;50469;50.438;-119.202;2023-07-20T02:18:58;97320.78;;;29.97
64175;BMP280;50469;50.438;-119.202;2023-07-20T02:21:26;97327.69;;;30.95
64175;BMP280;50469;50.438;-119.202;2023-07-20T02:23:54;97327.00;;;30.74
64175;BMP280;50469;50.438;-119.202;2023-07-20T02:26:22;97324.59;;;30.49
64175;BMP280;50469;50.438;-119.202;2023-07-20T02:28:50;97321.28;;;30.51
64175;BMP280;50469;50.438;-119.202;2023-07-20T02:31:18;97318.59;;;30.87
64175;BMP280;50469;50.438;-119.202;2023-07-20T02:33:47;97319.22;;;30.65
64175;BMP280;50469;50.438;-119.202;2023-07-20T02:36:18;97319.09;;;30.78
64175;BMP280;50469;50.438;-119.202;2023-07-20T02:38:49;97318.22;;;30.83
64175;BMP280;50469;50.438;-119.202;2023-07-20T02:41:17;97311.69;;;30.73
64175;BMP280;50469;50.438;-119.202;2023-07-20T02:43:46;97316.78;;;30.61
64175;BMP280;50469;50.438;-119.202;2023-07-20T02:46:14;97317.94;;;30.45
64175;BMP280;50469;50.438;-119.202;2023-07-20T02:48:42;97314.03;;;30.40
64175;BMP280;50469;50.438;-119.202;2023-07-20T02:51:10;97312.34;;;30.37
64175;BMP280;50469;50.438;-119.202;2023-07-20T02:53:39;97312.13;;;30.14
64175;BMP280;50469;50.438;-119.202;2023-07-20T02:56:07;97309.75;;;29.97
64175;BMP280;50469;50.438;-119.202;2023-07-20T02:58:35;97313.09;;;30.17
64175;BMP280;50469;50.438;-119.202;2023-07-20T03:01:03;97307.47;;;30.09
64175;BMP280;50469;50.438;-119.202;2023-07-20T03:03:34;97313.00;;;30.09
64175;BMP280;50469;50.438;-119.202;2023-07-20T03:06:02;97305.38;;;29.81
64175;BMP280;50469;50.438;-119.202;2023-07-20T03:08:30;97312.03;;;29.86
64175;BMP280;50469;50.438;-119.202;2023-07-20T03:10:58;97313.19;;;29.77
64175;BMP280;50469;50.438;-119.202;2023-07-20T03:13:27;97317.81;;;29.61
64175;BMP280;50469;50.438;-119.202;2023-07-20T03:15:55;97310.28;;;29.62
64175;BMP280;50469;50.438;-119.202;2023-07-20T03:18:23;97316.72;;;29.17
64175;BMP280;50469;50.438;-119.202;2023-07-20T03:20:51;97310.66;;;28.92
64175;BMP280;50469;50.438;-119.202;2023-07-20T03:23:19;97316.41;;;28.62
64175;BMP280;50469;50.438;-119.202;2023-07-20T03:25:51;97312.56;;;28.52
64175;BMP280;50469;50.438;-119.202;2023-07-20T03:28:19;97310.81;;;28.35
64175;BMP280;50469;50.438;-119.202;2023-07-20T03:30:53;97316.50;;;28.24
64175;BMP280;50469;50.438;-119.202;2023-07-20T03:33:24;97315.84;;;28.18
64175;BMP280;50469;50.438;-119.202;2023-07-20T03:35:53;97319.84;;;28.17
64175;BMP280;50469;50.438;-119.202;2023-07-20T03:38:25;97317.41;;;27.76
64175;BMP280;50469;50.438;-119.202;2023-07-20T03:40:57;97319.81;;;27.66
64175;BMP280;50469;50.438;-119.202;2023-07-20T03:43:30;97323.50;;;27.68
64175;BMP280;50469;50.438;-119.202;2023-07-20T03:45:58;97323.44;;;27.74
64175;BMP280;50469;50.438;-119.202;2023-07-20T03:48:26;97325.53;;;27.68
64175;BMP280;50469;50.438;-119.202;2023-07-20T03:50:56;97324.78;;;27.67
64175;BMP280;50469;50.438;-119.202;2023-07-20T03:53:24;97332.72;;;27.52
64175;BMP280;50469;50.438;-119.202;2023-07-20T03:55:53;97333.44;;;27.34
64175;BMP280;50469;50.438;-119.202;2023-07-20T03:58:21;97341.78;;;27.23
64175;BMP280;50469;50.438;-119.202;2023-07-20T04:00:51;97342.25;;;27.27
64175;BMP280;50469;50.438;-119.202;2023-07-20T04:03:20;97331.25;;;27.27
64175;BMP280;50469;50.438;-119.202;2023-07-20T04:05:48;97341.63;;;27.15
64175;BMP280;50469;50.438;-119.202;2023-07-20T04:08:16;97346.66;;;27.11
64175;BMP280;50469;50.438;-119.202;2023-07-20T04:10:44;97341.38;;;27.13
64175;BMP280;50469;50.438;-119.202;2023-07-20T04:13:12;97343.91;;;27.11
64175;BMP280;50469;50.438;-119.202;2023-07-20T04:15:41;97341.38;;;27.13
64175;BMP280;50469;50.438;-119.202;2023-07-20T04:18:09;97344.91;;;27.08
64175;BMP280;50469;50.438;-119.202;2023-07-20T04:20:40;97348.31;;;26.89
64175;BMP280;50469;50.438;-119.202;2023-07-20T04:23:11;97346.31;;;26.90
64175;BMP280;50469;50.438;-119.202;2023-07-20T04:25:40;97348.09;;;26.87
64175;BMP280;50469;50.438;-119.202;2023-07-20T04:28:08;97339.13;;;25.46
64175;BMP280;50469;50.438;-119.202;2023-07-20T04:30:37;97342.34;;;25.50
64175;BMP280;50469;50.438;-119.202;2023-07-20T04:33:06;97344.09;;;25.59
64175;BMP280;50469;50.438;-119.202;2023-07-20T04:35:53;97351.63;;;24.74
64175;BMP280;50469;50.438;-119.202;2023-07-20T04:38:23;97353.59;;;24.46
64175;BMP280;50469;50.438;-119.202;2023-07-20T04:40:54;97354.75;;;24.33
64175;BMP280;50469;50.438;-119.202;2023-07-20T04:43:22;97351.09;;;24.42
64175;BMP280;50469;50.438;-119.202;2023-07-20T04:45:50;97345.78;;;24.10
64175;BMP280;50469;50.438;-119.202;2023-07-20T04:48:18;97359.19;;;24.08
64175;BMP280;50469;50.438;-119.202;2023-07-20T04:50:46;97359.69;;;24.07
64175;BMP280;50469;50.438;-119.202;2023-07-20T04:53:14;97350.78;;;24.23
64175;BMP280;50469;50.438;-119.202;2023-07-20T04:55:49;97359.13;;;23.97
64175;BMP280;50469;50.438;-119.202;2023-07-20T04:58:20;97359.81;;;23.81
64175;BMP280;50469;50.438;-119.202;2023-07-20T05:00:49;97357.88;;;23.50
64175;BMP280;50469;50.438;-119.202;2023-07-20T05:03:18;97351.31;;;23.73
64175;BMP280;50469;50.438;-119.202;2023-07-20T05:05:49;97346.75;;;24.07
64175;BMP280;50469;50.438;-119.202;2023-07-20T05:08:17;97362.91;;;24.05
64175;BMP280;50469;50.438;-119.202;2023-07-20T05:10:48;97359.13;;;23.97
64175;BMP280;50469;50.438;-119.202;2023-07-20T05:13:16;97356.38;;;23.92
64175;BMP280;50469;50.438;-119.202;2023-07-20T05:15:44;97359.88;;;23.18
64175;BMP280;50469;50.438;-119.202;2023-07-20T05:18:13;97364.25;;;23.35
64175;BMP280;50469;50.438;-119.202;2023-07-20T05:20:42;97359.06;;;23.43
64175;BMP280;50469;50.438;-119.202;2023-07-20T05:23:10;97362.53;;;23.38
64175;BMP280;50469;50.438;-119.202;2023-07-20T05:25:39;97363.09;;;23.53
64175;BMP280;50469;50.438;-119.202;2023-07-20T05:28:08;97363.38;;;22.92
64175;BMP280;50469;50.438;-119.202;2023-07-20T05:30:36;97369.69;;;22.52
64175;BMP280;50469;50.438;-119.202;2023-07-20T05:33:06;97361.91;;;22.65
64175;BMP280;50469;50.438;-119.202;2023-07-20T05:35:34;97364.91;;;22.93
64175;BMP280;50469;50.438;-119.202;2023-07-20T05:38:06;97370.66;;;22.49
64175;BMP280;50469;50.438;-119.202;2023-07-20T05:40:37;97369.72;;;22.57
64175;BMP280;50469;50.438;-119.202;2023-07-20T05:43:06;97371.06;;;22.42
64175;BMP280;50469;50.438;-119.202;2023-07-20T05:45:37;97368.75;;;21.94
64175;BMP280;50469;50.438;-119.202;2023-07-20T05:48:05;97371.16;;;21.91
64175;BMP280;50469;50.438;-119.202;2023-07-20T05:50:35;97367.09;;;22.22
64175;BMP280;50469;50.438;-119.202;2023-07-20T05:53:03;97376.31;;;22.04
64175;BMP280;50469;50.438;-119.202;2023-07-20T05:55:31;97370.63;;;21.87
64175;BMP280;50469;50.438;-119.202;2023-07-20T05:58:02;97381.78;;;21.69
64175;BMP280;50469;50.438;-119.202;2023-07-20T06:00:30;97377.03;;;21.49
64175;BMP280;50469;50.438;-119.202;2023-07-20T06:02:58;97384.44;;;21.49
64175;BMP280;50469;50.438;-119.202;2023-07-20T06:05:26;97378.34;;;21.54
64175;BMP280;50469;50.438;-119.202;2023-07-20T06:07:55;97386.03;;;21.40
64175;BMP280;50469;50.438;-119.202;2023-07-20T06:10:23;97384.09;;;21.41
64175;BMP280;50469;50.438;-119.202;2023-07-20T06:12:51;97389.91;;;21.34
64175;BMP280;50469;50.438;-119.202;2023-07-20T06:15:32;97388.78;;;21.11
64175;BMP280;50469;50.438;-119.202;2023-07-20T06:18:04;97386.88;;;21.17
64175;BMP280;50469;50.438;-119.202;2023-07-20T06:20:35;97381.06;;;20.95
64175;BMP280;50469;50.438;-119.202;2023-07-20T06:23:03;97381.56;;;21.08
64175;BMP280;50469;50.438;-119.202;2023-07-20T06:25:32;97384.16;;;21.02
64175;BMP280;50469;50.438;-119.202;2023-07-20T06:28:00;97387.16;;;20.75
64175;BMP280;50469;50.438;-119.202;2023-07-20T06:30:28;97384.69;;;20.77
64175;BMP280;50469;50.438;-119.202;2023-07-20T06:32:59;97388.97;;;20.68
64175;BMP280;50469;50.438;-119.202;2023-07-20T06:35:34;97390.34;;;20.49
64175;BMP280;50469;50.438;-119.202;2023-07-20T06:38:03;97394.91;;;20.67
64175;BMP280;50469;50.438;-119.202;2023-07-20T06:40:36;97399.22;;;21.12
64175;BMP280;50469;50.438;-119.202;2023-07-20T06:43:04;97402.84;;;21.09
64175;BMP280;50469;50.438;-119.202;2023-07-20T06:45:35;97408.13;;;21.28
64175;BMP280;50469;50.438;-119.202;2023-07-20T06:48:03;97404.16;;;20.99
64175;BMP280;50469;50.438;-119.202;2023-07-20T06:50:31;97405.06;;;20.81
64175;BMP280;50469;50.438;-119.202;2023-07-20T06:53:02;97407.84;;;20.72
64175;BMP280;50469;50.438;-119.202;2023-07-20T06:55:33;97416.75;;;20.58
64175;BMP280;50469;50.438;-119.202;2023-07-20T06:58:11;97413.72;;;20.56
64175;BMP280;50469;50.438;-119.202;2023-07-20T07:00:40;97422.06;;;20.52
64175;BMP280;50469;50.438;-119.202;2023-07-20T07:03:08;97418.25;;;20.35
64175;BMP280;50469;50.438;-119.202;2023-07-20T07:05:39;97422.09;;;20.43
64175;BMP280;50469;50.438;-119.202;2023-07-20T07:08:07;97415.22;;;20.33
64175;BMP280;50469;50.438;-119.202;2023-07-20T07:10:36;97421.13;;;20.55
64175;BMP280;50469;50.438;-119.202;2023-07-20T07:13:04;97422.66;;;20.32
64175;BMP280;50469;50.438;-119.202;2023-07-20T07:15:33;97426.09;;;20.33
64175;BMP280;50469;50.438;-119.202;2023-07-20T07:18:03;97429.38;;;20.37
64175;BMP280;50469;50.438;-119.202;2023-07-20T07:20:31;97435.91;;;20.06
64175;BMP280;50469;50.438;-119.202;2023-07-20T07:22:59;97427.50;;;19.95
64175;BMP280;50469;50.438;-119.202;2023-07-20T07:25:27;97425.09;;;19.97
64175;BMP280;50469;50.438;-119.202;2023-07-20T07:28:00;97430.53;;;19.97
64175;BMP280;50469;50.438;-119.202;2023-07-20T07:30:30;97426.38;;;19.59
64175;BMP280;50469;50.438;-119.202;2023-07-20T07:33:00;97435.75;;;19.67
64175;BMP280;50469;50.438;-119.202;2023-07-20T07:35:29;97436.50;;;19.68
64175;BMP280;50469;50.438;-119.202;2023-07-20T07:37:57;97440.16;;;19.56
64175;BMP280;50469;50.438;-119.202;2023-07-20T07:40:30;97440.50;;;19.30
64175;BMP280;50469;50.438;-119.202;2023-07-20T07:42:58;97437.91;;;19.08
64175;BMP280;50469;50.438;-119.202;2023-07-20T07:45:26;97443.34;;;18.90
64175;BMP280;50469;50.438;-119.202;2023-07-20T07:47:54;97446.22;;;18.86
64175;BMP280;50469;50.438;-119.202;2023-07-20T07:50:25;97443.34;;;18.81
64175;BMP280;50469;50.438;-119.202;2023-07-20T07:52:53;97454.09;;;19.21
64175;BMP280;50469;50.438;-119.202;2023-07-20T07:55:21;97455.13;;;19.23
64175;BMP280;50469;50.438;-119.202;2023-07-20T07:57:49;97448.78;;;19.08
64175;BMP280;50469;50.438;-119.202;2023-07-20T08:00:18;97448.34;;;19.10
64175;BMP280;50469;50.438;-119.202;2023-07-20T08:02:52;97452.56;;;19.20
64175;BMP280;50469;50.438;-119.202;2023-07-20T08:05:20;97455.13;;;19.05
64175;BMP280;50469;50.438;-119.202;2023-07-20T08:07:50;97458.13;;;18.89
64175;BMP280;50469;50.438;-119.202;2023-07-20T08:10:18;97459.34;;;18.88
64175;BMP280;50469;50.438;-119.202;2023-07-20T08:12:46;97455.72;;;19.00
64175;BMP280;50469;50.438;-119.202;2023-07-20T08:15:14;97454.97;;;18.99
64175;BMP280;50469;50.438;-119.202;2023-07-20T08:17:42;97461.75;;;18.86
64175;BMP280;50469;50.438;-119.202;2023-07-20T08:20:13;97463.56;;;18.80
64175;BMP280;50469;50.438;-119.202;2023-07-20T08:22:41;97447.09;;;18.65
64175;BMP280;50469;50.438;-119.202;2023-07-20T08:25:09;97454.75;;;18.57
64175;BMP280;50469;50.438;-119.202;2023-07-20T08:27:37;97456.75;;;18.57
64175;BMP280;50469;50.438;-119.202;2023-07-20T08:30:06;97451.91;;;18.61
64175;BMP280;50469;50.438;-119.202;2023-07-20T08:32:37;97463.84;;;17.92
64175;BMP280;50469;50.438;-119.202;2023-07-20T08:35:08;97471.88;;;18.04
64175;BMP280;50469;50.438;-119.202;2023-07-20T08:37:36;97466.88;;;17.94
64175;BMP280;50469;50.438;-119.202;2023-07-20T08:40:05;97471.78;;;17.86
64175;BMP280;50469;50.438;-119.202;2023-07-20T08:42:33;97463.66;;;17.86
64175;BMP280;50469;50.438;-119.202;2023-07-20T08:45:09;97463.09;;;17.91
64175;BMP280;50469;50.438;-119.202;2023-07-20T08:47:41;97463.69;;;17.95
64175;BMP280;50469;50.438;-119.202;2023-07-20T08:50:11;97470.41;;;18.13
64175;BMP280;50469;50.438;-119.202;2023-07-20T08:52:40;97468.59;;;18.10
64175;BMP280;50469;50.438;-119.202;2023-07-20T08:55:11;97461.47;;;17.94
64175;BMP280;50469;50.438;-119.202;2023-07-20T08:57:41;97471.50;;;17.84
64175;BMP280;50469;50.438;-119.202;2023-07-20T09:00:13;97472.72;;;17.92
64175;BMP280;50469;50.438;-119.202;2023-07-20T09:02:42;97473.53;;;17.80
64175;BMP280;50469;50.438;-119.202;2023-07-20T09:05:12;97472.97;;;17.85
64175;BMP280;50469;50.438;-119.202;2023-07-20T09:07:47;97474.53;;;17.95
64175;BMP280;50469;50.438;-119.202;2023-07-20T09:10:15;97466.00;;;17.75
64175;BMP280;50469;50.438;-119.202;2023-07-20T09:12:43;97468.31;;;18.08
64175;BMP280;50469;50.438;-119.202;2023-07-20T09:15:12;97467.81;;;18.09
64175;BMP280;50469;50.438;-119.202;2023-07-20T09:17:46;97474.03;;;18.10
64175;BMP280;50469;50.438;-119.202;2023-07-20T09:20:18;97466.81;;;17.84
64175;BMP280;50469;50.438;-119.202;2023-07-20T09:22:51;97472.88;;;17.67
64175;BMP280;50469;50.438;-119.202;2023-07-20T09:25:22;97467.63;;;17.50
64175;BMP280;50469;50.438;-119.202;2023-07-20T09:27:53;97471.78;;;17.42
64175;BMP280;50469;50.438;-119.202;2023-07-20T09:30:28;97470.34;;;17.50
64175;BMP280;50469;50.438;-119.202;2023-07-20T09:32:58;97481.06;;;17.54
64175;BMP280;50469;50.438;-119.202;2023-07-20T09:35:27;97477.91;;;17.55
64175;BMP280;50469;50.438;-119.202;2023-07-20T09:38:11;97472.81;;;17.57
64175;BMP280;50469;50.438;-119.202;2023-07-20T09:40:44;97482.75;;;17.60
64175;BMP280;50469;50.438;-119.202;2023-07-20T09:43:16;97479.69;;;17.49
64175;BMP280;50469;50.438;-119.202;2023-07-20T09:45:47;97477.53;;;17.44
64175;BMP280;50469;50.438;-119.202;2023-07-20T09:48:18;97475.31;;;17.52
64175;BMP280;50469;50.438;-119.202;2023-07-20T09:50:50;97481.81;;;16.85
64175;BMP280;50469;50.438;-119.202;2023-07-20T09:53:19;97483.25;;;16.77
64175;BMP280;50469;50.438;-119.202;2023-07-20T09:55:51;97479.00;;;16.76
64175;BMP280;50469;50.438;-119.202;2023-07-20T09:58:21;97487.63;;;16.83
64175;BMP280;50469;50.438;-119.202;2023-07-20T10:00:51;97494.91;;;16.35
64175;BMP280;50469;50.438;-119.202;2023-07-20T10:03:22;97496.22;;;16.43
64175;BMP280;50469;50.438;-119.202;2023-07-20T10:05:56;97486.38;;;16.24
64175;BMP280;50469;50.438;-119.202;2023-07-20T10:08:26;97487.94;;;15.96
64175;BMP280;50469;50.438;-119.202;2023-07-20T10:11:00;97492.41;;;16.15
64175;BMP280;50469;50.438;-119.202;2023-07-20T10:13:30;97494.63;;;16.04
64175;BMP280;50469;50.438;-119.202;2023-07-20T10:16:11;97499.06;;;15.40
64175;BMP280;50469;50.438;-119.202;2023-07-20T10:21:17;97499.53;;;15.96
64175;BMP280;50469;50.438;-119.202;2023-07-20T10:23:49;97495.66;;;16.10
64175;BMP280;50469;50.438;-119.202;2023-07-20T10:26:17;97491.97;;;16.17
64175;BMP280;50469;50.438;-119.202;2023-07-20T10:28:46;97500.53;;;16.28
64175;BMP280;50469;50.438;-119.202;2023-07-20T10:31:15;97499.34;;;16.29
64175;BMP280;50469;50.438;-119.202;2023-07-20T10:33:48;97499.13;;;16.24
64175;BMP280;50469;50.438;-119.202;2023-07-20T10:36:16;97498.53;;;16.03
64175;BMP280;50469;50.438;-119.202;2023-07-20T10:38:54;97495.81;;;16.03
64175;BMP280;50469;50.438;-119.202;2023-07-20T10:41:34;97495.38;;;15.92
64175;BMP280;50469;50.438;-119.202;2023-07-20T10:44:08;97510.63;;;15.98
64175;BMP280;50469;50.438;-119.202;2023-07-20T10:49:10;97501.97;;;16.04
64175;BMP280;50469;50.438;-119.202;2023-07-20T10:51:47;97509.41;;;15.87
64175;BMP280;50469;50.438;-119.202;2023-07-20T10:56:49;97517.31;;;15.65
64175;BMP280;50469;50.438;-119.202;2023-07-20T11:01:58;97521.78;;;15.55
64175;BMP280;50469;50.438;-119.202;2023-07-20T11:04:45;97529.78;;;15.46
64175;BMP280;50469;50.438;-119.202;2023-07-20T11:07:36;97525.13;;;15.46
64175;BMP280;50469;50.438;-119.202;2023-07-20T11:10:14;97526.22;;;15.33
64175;BMP280;50469;50.438;-119.202;2023-07-20T11:13:22;97530.13;;;15.61
64175;BMP280;50469;50.438;-119.202;2023-07-20T11:18:28;97527.53;;;15.57
64175;BMP280;50469;50.438;-119.202;2023-07-20T11:21:00;97528.03;;;15.68
64175;BMP280;50469;50.438;-119.202;2023-07-20T11:23:31;97526.19;;;15.65
64175;BMP280;50469;50.438;-119.202;2023-07-20T11:26:01;97530.69;;;15.56
64175;BMP280;50469;50.438;-119.202;2023-07-20T11:28:34;97531.97;;;15.35
64175;BMP280;50469;50.438;-119.202;2023-07-20T11:31:02;97528.16;;;15.16
64175;BMP280;50469;50.438;-119.202;2023-07-20T11:33:30;97522.16;;;15.08
64175;BMP280;50469;50.438;-119.202;2023-07-20T11:35:59;97526.03;;;14.91
64175;BMP280;50469;50.438;-119.202;2023-07-20T11:38:30;97529.66;;;14.84
64175;BMP280;50469;50.438;-119.202;2023-07-20T11:41:05;97526.16;;;14.87
64175;BMP280;50469;50.438;-119.202;2023-07-20T11:43:34;97531.34;;;14.78
64175;BMP280;50469;50.438;-119.202;2023-07-20T11:46:02;97531.28;;;14.81
64175;BMP280;50469;50.438;-119.202;2023-07-20T11:48:34;97523.94;;;14.82
64175;BMP280;50469;50.438;-119.202;2023-07-20T11:51:02;97533.97;;;14.98
64175;BMP280;50469;50.438;-119.202;2023-07-20T11:53:31;97531.88;;;15.22
64175;BMP280;50469;50.438;-119.202;2023-07-20T11:55:59;97537.44;;;15.31
64175;BMP280;50469;50.438;-119.202;2023-07-20T11:58:31;97544.94;;;15.40
64175;BMP280;50469;50.438;-119.202;2023-07-20T12:00:59;97552.88;;;15.47
64175;BMP280;50469;50.438;-119.202;2023-07-20T12:03:27;97546.88;;;15.39
64175;BMP280;50469;50.438;-119.202;2023-07-20T12:05:55;97546.47;;;15.24
64175;BMP280;50469;50.438;-119.202;2023-07-20T12:08:30;97541.56;;;15.19
64175;BMP280;50469;50.438;-119.202;2023-07-20T12:11:01;97547.81;;;15.16
64175;BMP280;50469;50.438;-119.202;2023-07-20T12:13:42;97554.91;;;15.26
64175;BMP280;50469;50.438;-119.202;2023-07-20T12:16:14;97553.72;;;15.11
64175;BMP280;50469;50.438;-119.202;2023-07-20T12:18:45;97557.84;;;14.99
64175;BMP280;50469;50.438;-119.202;2023-07-20T12:21:13;97559.44;;;14.97
64175;BMP280;50469;50.438;-119.202;2023-07-20T12:23:42;97557.31;;;15.04
64175;BMP280;50469;50.438;-119.202;2023-07-20T12:26:10;97556.47;;;15.07
64175;BMP280;50469;50.438;-119.202;2023-07-20T12:28:40;97558.69;;;15.13
64175;BMP280;50469;50.438;-119.202;2023-07-20T12:31:09;97555.47;;;15.01
64175;BMP280;50469;50.438;-119.202;2023-07-20T12:33:39;97552.34;;;14.10
64175;BMP280;50469;50.438;-119.202;2023-07-20T12:36:09;97559.66;;;14.70
64175;BMP280;50469;50.438;-119.202;2023-07-20T12:38:37;97562.34;;;14.70
64175;BMP280;50469;50.438;-119.202;2023-07-20T12:41:05;97564.59;;;14.71
64175;BMP280;50469;50.438;-119.202;2023-07-20T12:43:36;97559.13;;;14.75
64175;BMP280;50469;50.438;-119.202;2023-07-20T12:46:07;97561.97;;;14.88
64175;BMP280;50469;50.438;-119.202;2023-07-20T12:48:39;97560.34;;;14.90
64175;BMP280;50469;50.438;-119.202;2023-07-20T12:51:09;97568.94;;;15.01
64175;BMP280;50469;50.438;-119.202;2023-07-20T12:53:39;97573.75;;;15.10
64175;BMP280;50469;50.438;-119.202;2023-07-20T12:56:07;97577.56;;;15.13
64175;BMP280;50469;50.438;-119.202;2023-07-20T12:58:41;97580.00;;;15.07
64175;BMP280;50469;50.438;-119.202;2023-07-20T13:01:09;97583.56;;;14.68
64175;BMP280;50469;50.438;-119.202;2023-07-20T13:03:37;97585.56;;;15.00
64175;BMP280;50469;50.438;-119.202;2023-07-20T13:06:25;97590.72;;;15.11
64175;BMP280;50469;50.438;-119.202;2023-07-20T13:08:55;97588.88;;;15.57
64175;BMP280;50469;50.438;-119.202;2023-07-20T13:11:23;97585.25;;;15.63
64175;BMP280;50469;50.438;-119.202;2023-07-20T13:13:55;97594.91;;;15.77
64175;BMP280;50469;50.438;-119.202;2023-07-20T13:16:23;97590.06;;;15.56
64175;BMP280;50469;50.438;-119.202;2023-07-20T13:18:53;97600.13;;;16.13
64175;BMP280;50469;50.438;-119.202;2023-07-20T13:21:24;97611.09;;;17.16
64175;BMP280;50469;50.438;-119.202;2023-07-20T13:23:52;97612.19;;;18.85
64175;BMP280;50469;50.438;-119.202;2023-07-20T13:26:21;97617.59;;;19.89
64175;BMP280;50469;50.438;-119.202;2023-07-20T13:28:49;97618.94;;;20.03
64175;BMP280;50469;50.438;-119.202;2023-07-20T13:31:22;97611.84;;;20.06
64175;BMP280;50469;50.438;-119.202;2023-07-20T13:33:51;97616.69;;;20.11
64175;BMP280;50469;50.438;-119.202;2023-07-20T13:36:25;97610.78;;;21.21
64175;BMP280;50469;50.438;-119.202;2023-07-20T13:38:56;97606.69;;;21.64
64175;BMP280;50469;50.438;-119.202;2023-07-20T13:41:26;97620.59;;;22.41
64175;BMP280;50469;50.438;-119.202;2023-07-20T13:43:56;97616.66;;;22.27
64175;BMP280;50469;50.438;-119.202;2023-07-20T13:46:24;97627.69;;;21.64
64175;BMP280;50469;50.438;-119.202;2023-07-20T13:48:55;97627.63;;;22.62
64175;BMP280;50469;50.438;-119.202;2023-07-20T13:51:24;97621.91;;;22.45
64175;BMP280;50469;50.438;-119.202;2023-07-20T13:53:54;97623.56;;;22.57
64175;BMP280;50469;50.438;-119.202;2023-07-20T13:56:22;97628.81;;;22.26
64175;BMP280;50469;50.438;-119.202;2023-07-20T13:58:53;97620.91;;;23.65
64175;BMP280;50469;50.438;-119.202;2023-07-20T14:01:25;97625.38;;;22.81
64175;BMP280;50469;50.438;-119.202;2023-07-20T14:03:56;97636.47;;;22.92
64175;BMP280;50469;50.438;-119.202;2023-07-20T14:06:30;97625.19;;;23.46
64175;BMP280;50469;50.438;-119.202;2023-07-20T14:08:59;97633.91;;;23.70
64175;BMP280;50469;50.438;-119.202;2023-07-20T14:11:27;97616.28;;;22.04